Spaceon02064 — ASD — position and weather

sailwx.info

Track history (hours):
 
Tides and Currents Weather Stations Pressure Air Temp Water Temp Dewpoint Dewpoint Depression Visibility Wind Speed Wind Dir Waves Ship Positions

Spaceon02064

Last reported at 2016-Dec-11 11:33 UTC. Time now 2016-Dec-11 11:56 UTC.
Position N 24°47' E 118°47'.

Length 6 m.

Type: Ship. MMSI: 200902064.

Date/timePositionNaut miles runAvg speedWind from/ knotsBaromVisibWave heightAir tempDewpointWater temp
2016-Dec-11 11:33N 24°47' E 118°47'4206070.0
2016-Dec-11 11:29N 31°22' E 121°28'420322.7
2016-Dec-11 10:11N 24°47' E 118°47'4204063.0
2016-Dec-11 10:05N 31°22' E 121°28'420798.0
2016-Dec-11 09:33N 24°47' E 118°47'4205536.4
2016-Dec-11 09:29N 31°22' E 121°28'0 0.0
2016-Dec-11 08:26N 31°22' E 121°28'420480.6
2016-Dec-11 07:33N 24°47' E 118°47'4205176.2
2016-Dec-11 07:28N 31°22' E 121°28'420456.4
2016-Dec-11 06:33N 24°47' E 118°47'4205140.9
2016-Dec-11 06:28N 31°22' E 121°28'420457.9
2016-Dec-11 05:33N 24°47' E 118°47'4202266.0
2016-Dec-11 05:22N 31°22' E 121°28'0 0.0
2016-Dec-11 04:28N 31°22' E 121°28'4201341.1
2016-Dec-11 04:09N 24°47' E 118°47'0 0.0
2016-Dec-11 03:33N 24°47' E 118°47'4201447.7
2016-Dec-11 03:16N 31°22' E 121°28'0 0.0
2016-Dec-11 02:22N 31°22' E 121°28'0 0.0
2016-Dec-11 01:31N 31°22' E 121°28'0 0.0
2016-Dec-11 00:31N 31°22' E 121°28'0 0.1
2016-Dec-10 23:31N 31°22' E 121°28'0 0.0
2016-Dec-10 22:31N 31°22' E 121°28'0 0.0
2016-Dec-10 21:25N 31°22' E 121°28'0 0.2
2016-Dec-10 20:33N 31°22' E 121°28'3 3.1
2016-Dec-10 19:32N 31°21' E 121°32'6 5.5
2016-Dec-10 18:27N 31°15' E 121°30'99 5.8
2016-Dec-10 01:28N 29°40' E 122°02'985444.3
2016-Dec-10 01:27N 31°14' E 121°29'93103.9
2016-Dec-10 00:33N 29°46' E 122°04'99255.0
2016-Dec-10 00:10N 31°21' E 121°31'95156.4
2016-Dec-09 23:33N 29°51' E 122°07'982951.8
2016-Dec-09 23:32N 31°24' E 121°33'9396.0
2016-Dec-09 22:33N 29°55' E 122°06'5 5.3
2016-Dec-09 21:34N 29°59' E 122°02'6 5.5
2016-Dec-09 20:33N 30°03' E 121°58'79 5.2
2016-Dec-09 05:20N 31°21' E 121°39'7 8.4
2016-Dec-09 04:33N 31°24' E 121°32'3 3.1
2016-Dec-09 03:33N 31°20' E 121°32'0 0.1
2016-Dec-09 02:25N 31°20' E 121°32'0 0.0
2016-Dec-09 01:28N 31°20' E 121°32'0 0.0
2016-Dec-09 00:22N 31°20' E 121°32'0 0.0
2016-Dec-08 22:24N 31°20' E 121°32'0 0.0
2016-Dec-08 21:33N 31°20' E 121°32'2 1.6
2016-Dec-08 20:33N 31°21' E 121°31'1 0.7
2016-Dec-08 19:29N 31°22' E 121°30'0 0.0
2016-Dec-08 18:32N 31°22' E 121°30'884338.4
2016-Dec-08 18:31N 29°57' E 121°59'9 9.2
2016-Dec-08 17:33N 29°54' E 122°08'941131.2
2016-Dec-08 17:29N 31°22' E 121°30'3 3.0
2016-Dec-08 16:33N 31°24' E 121°32'1011598.5
2016-Dec-08 16:29N 29°46' E 122°04'98104.6
2016-Dec-08 15:33N 31°21' E 121°39'91661.0
2016-Dec-08 00:32N 20°07' E 110°11'91870.8
2016-Dec-07 11:33N 31°36' E 121°25'10114.3
2016-Dec-07 04:30N 29°60' E 122°01'6 6.9
2016-Dec-07 03:33N 29°55' E 122°07'7 6.5
2016-Dec-07 02:34N 29°50' E 122°10'3 0.6
2016-Dec-06 21:33N 29°48' E 122°07'9 8.9
2016-Dec-06 20:30N 29°40' E 122°02'8 0.2
2016-Dec-05 09:31N 29°48' E 122°05'7 7.7
2016-Dec-05 08:33N 29°55' E 122°08'16 0.8
2016-Dec-04 12:32N 29°39' E 122°01'1073596.9
2016-Dec-04 12:30N 31°24' E 121°33'100103.5
2016-Dec-04 11:32N 29°47' E 122°04'8 8.5
2016-Dec-04 10:33N 29°55' E 122°08'111302.4
2016-Dec-04 10:11N 31°36' E 121°16'103157.0
2016-Dec-04 09:32N 30°00' E 122°01'108129084.4
2016-Dec-04 09:32N 31°40' E 121°12'6 6.0
2016-Dec-04 08:33N 31°43' E 121°07'36 3.9
2016-Dec-03 23:12N 31°20' E 121°40'7 1.8
2016-Dec-03 19:33N 31°23' E 121°33'3 2.8
2016-Dec-03 18:33N 31°21' E 121°32'1 0.4
2016-Dec-03 17:07N 31°20' E 121°32'0 0.0
2016-Dec-03 12:12N 31°20' E 121°32'0 0.1
2016-Dec-03 11:29N 31°20' E 121°32'0 0.0
2016-Dec-03 10:23N 31°20' E 121°32'0 0.0
2016-Dec-03 09:30N 31°20' E 121°32'0 0.0
2016-Dec-03 08:28N 31°20' E 121°32'0 0.0
2016-Dec-03 07:28N 31°20' E 121°32'3 3.7
2016-Dec-03 06:32N 31°24' E 121°32'29 1.3
2016-Dec-02 07:33N 31°43' E 121°07'1310.2
2016-Dec-02 06:17N 31°35' E 121°18'710.2
2016-Dec-02 05:33N 31°30' E 121°25'9 8.3
2016-Dec-02 04:31N 31°23' E 121°30'6 6.5
2016-Dec-02 03:32N 31°17' E 121°34'68 6.7
2016-Dec-01 17:23N 30°11' E 121°51'8 3.8
2016-Dec-01 15:16N 30°04' E 121°55'6 7.6
2016-Dec-01 14:32N 29°59' E 121°59'8 8.0
2016-Dec-01 13:33N 29°55' E 122°07'7 7.0
2016-Dec-01 12:31N 29°49' E 122°11'  
Track history (hours):
 
Tides and Currents Weather Stations Pressure Air Temp Water Temp Dewpoint Dewpoint Depression Visibility Wind Speed Wind Dir Waves Ship Positions

Spaceon02064

Last reported at 2016-Dec-11 11:33 UTC. Time now 2016-Dec-11 11:56 UTC.
Position N 24°47' E 118°47'.

Length 6 m.

Type: Ship. MMSI: 200902064.

Date/timePositionNaut miles runAvg speedWind from/ knotsBaromVisibWave heightAir tempDewpointWater temp
2016-Dec-11 11:33N 24°47' E 118°47'4206070.0
2016-Dec-11 11:29N 31°22' E 121°28'420322.7
2016-Dec-11 10:11N 24°47' E 118°47'4204063.0
2016-Dec-11 10:05N 31°22' E 121°28'420798.0
2016-Dec-11 09:33N 24°47' E 118°47'4205536.4
2016-Dec-11 09:29N 31°22' E 121°28'0 0.0
2016-Dec-11 08:26N 31°22' E 121°28'420480.6
2016-Dec-11 07:33N 24°47' E 118°47'4205176.2
2016-Dec-11 07:28N 31°22' E 121°28'420456.4
2016-Dec-11 06:33N 24°47' E 118°47'4205140.9
2016-Dec-11 06:28N 31°22' E 121°28'420457.9
2016-Dec-11 05:33N 24°47' E 118°47'4202266.0
2016-Dec-11 05:22N 31°22' E 121°28'0 0.0
2016-Dec-11 04:28N 31°22' E 121°28'4201341.1
2016-Dec-11 04:09N 24°47' E 118°47'0 0.0
2016-Dec-11 03:33N 24°47' E 118°47'4201447.7
2016-Dec-11 03:16N 31°22' E 121°28'0 0.0
2016-Dec-11 02:22N 31°22' E 121°28'0 0.0
2016-Dec-11 01:31N 31°22' E 121°28'0 0.0
2016-Dec-11 00:31N 31°22' E 121°28'0 0.1
2016-Dec-10 23:31N 31°22' E 121°28'0 0.0
2016-Dec-10 22:31N 31°22' E 121°28'0 0.0
2016-Dec-10 21:25N 31°22' E 121°28'0 0.2
2016-Dec-10 20:33N 31°22' E 121°28'3 3.1
2016-Dec-10 19:32N 31°21' E 121°32'6 5.5
2016-Dec-10 18:27N 31°15' E 121°30'99 5.8
2016-Dec-10 01:28N 29°40' E 122°02'985444.3
2016-Dec-10 01:27N 31°14' E 121°29'93103.9
2016-Dec-10 00:33N 29°46' E 122°04'99255.0
2016-Dec-10 00:10N 31°21' E 121°31'95156.4
2016-Dec-09 23:33N 29°51' E 122°07'982951.8
2016-Dec-09 23:32N 31°24' E 121°33'9396.0
2016-Dec-09 22:33N 29°55' E 122°06'5 5.3
2016-Dec-09 21:34N 29°59' E 122°02'6 5.5
2016-Dec-09 20:33N 30°03' E 121°58'79 5.2
2016-Dec-09 05:20N 31°21' E 121°39'7 8.4
2016-Dec-09 04:33N 31°24' E 121°32'3 3.1
2016-Dec-09 03:33N 31°20' E 121°32'0 0.1
2016-Dec-09 02:25N 31°20' E 121°32'0 0.0
2016-Dec-09 01:28N 31°20' E 121°32'0 0.0
2016-Dec-09 00:22N 31°20' E 121°32'0 0.0
2016-Dec-08 22:24N 31°20' E 121°32'0 0.0
2016-Dec-08 21:33N 31°20' E 121°32'2 1.6
2016-Dec-08 20:33N 31°21' E 121°31'1 0.7
2016-Dec-08 19:29N 31°22' E 121°30'0 0.0
2016-Dec-08 18:32N 31°22' E 121°30'884338.4
2016-Dec-08 18:31N 29°57' E 121°59'9 9.2
2016-Dec-08 17:33N 29°54' E 122°08'941131.2
2016-Dec-08 17:29N 31°22' E 121°30'3 3.0
2016-Dec-08 16:33N 31°24' E 121°32'1011598.5
2016-Dec-08 16:29N 29°46' E 122°04'98104.6
2016-Dec-08 15:33N 31°21' E 121°39'91661.0
2016-Dec-08 00:32N 20°07' E 110°11'91870.8
2016-Dec-07 11:33N 31°36' E 121°25'10114.3
2016-Dec-07 04:30N 29°60' E 122°01'6 6.9
2016-Dec-07 03:33N 29°55' E 122°07'7 6.5
2016-Dec-07 02:34N 29°50' E 122°10'3 0.6
2016-Dec-06 21:33N 29°48' E 122°07'9 8.9
2016-Dec-06 20:30N 29°40' E 122°02'8 0.2
2016-Dec-05 09:31N 29°48' E 122°05'7 7.7
2016-Dec-05 08:33N 29°55' E 122°08'16 0.8
2016-Dec-04 12:32N 29°39' E 122°01'1073596.9
2016-Dec-04 12:30N 31°24' E 121°33'100103.5
2016-Dec-04 11:32N 29°47' E 122°04'8 8.5
2016-Dec-04 10:33N 29°55' E 122°08'111302.4
2016-Dec-04 10:11N 31°36' E 121°16'103157.0
2016-Dec-04 09:32N 30°00' E 122°01'108129084.4
2016-Dec-04 09:32N 31°40' E 121°12'6 6.0
2016-Dec-04 08:33N 31°43' E 121°07'36 3.9
2016-Dec-03 23:12N 31°20' E 121°40'7 1.8
2016-Dec-03 19:33N 31°23' E 121°33'3 2.8
2016-Dec-03 18:33N 31°21' E 121°32'1 0.4
2016-Dec-03 17:07N 31°20' E 121°32'0 0.0
2016-Dec-03 12:12N 31°20' E 121°32'0 0.1
2016-Dec-03 11:29N 31°20' E 121°32'0 0.0
2016-Dec-03 10:23N 31°20' E 121°32'0 0.0
2016-Dec-03 09:30N 31°20' E 121°32'0 0.0
2016-Dec-03 08:28N 31°20' E 121°32'0 0.0
2016-Dec-03 07:28N 31°20' E 121°32'3 3.7
2016-Dec-03 06:32N 31°24' E 121°32'29 1.3
2016-Dec-02 07:33N 31°43' E 121°07'1310.2
2016-Dec-02 06:17N 31°35' E 121°18'710.2
2016-Dec-02 05:33N 31°30' E 121°25'9 8.3
2016-Dec-02 04:31N 31°23' E 121°30'6 6.5
2016-Dec-02 03:32N 31°17' E 121°34'68 6.7
2016-Dec-01 17:23N 30°11' E 121°51'8 3.8
2016-Dec-01 15:16N 30°04' E 121°55'6 7.6
2016-Dec-01 14:32N 29°59' E 121°59'8 8.0
2016-Dec-01 13:33N 29°55' E 122°07'7 7.0
2016-Dec-01 12:31N 29°49' E 122°11'  

Dump ship's entire track history